Time;durP1;ratioP1;P1;durP2;ratioP2;P2;SDS_P1;SDS_P2;PMS_P1;PMS_P2;Temp;Humidity;BMP_temperature;BMP_pressure;BME280_temperature;BME280_humidity;BME280_pressure;Samples;Min_cycle;Max_cycle;Signal;HPM_P1;HPM_P2
2023/08/21 03:00:57;;;;;;;3.65;3.35;;;26.20;62.20;;;;;;5679385;23;46236;-85
2023/08/21 03:03:22;;;;;;;3.75;3.45;;;26.20;62.30;;;;;;4883345;28;45500;-82
2023/08/21 03:05:48;;;;;;;3.67;3.28;;;26.20;62.50;;;;;;4845518;29;45422;-83
2023/08/21 03:08:13;;;;;;;3.72;3.42;;;26.20;62.20;;;;;;4828530;29;46040;-82
2023/08/21 03:10:39;;;;;;;3.92;3.53;;;26.20;62.20;;;;;;4842383;29;47919;-83
2023/08/21 03:13:05;;;;;;;3.13;2.92;;;26.20;62.20;;;;;;4873553;29;45236;-84
2023/08/21 03:15:30;;;;;;;3.80;3.50;;;26.20;62.20;;;;;;4835823;29;45270;-82
2023/08/21 03:17:56;;;;;;;3.60;3.30;;;26.20;62.20;;;;;;4875198;29;46281;-83
2023/08/21 03:20:21;;;;;;;3.72;3.40;;;26.20;62.20;;;;;;4839854;28;47514;-84
2023/08/21 03:22:47;;;;;;;3.97;3.58;;;26.20;62.20;;;;;;4870272;29;45154;-83
2023/08/21 03:25:15;;;;;;;4.13;3.72;;;26.20;62.20;;;;;;4842286;29;46184;-86
2023/08/21 03:27:44;;;;;;;3.90;3.45;;;26.20;62.20;;;;;;4873611;29;45484;-83
2023/08/21 03:30:10;;;;;;;3.75;3.40;;;26.20;62.20;;;;;;4862807;29;48285;-85
2023/08/21 03:32:35;;;;;;;4.22;3.70;;;26.20;62.20;;;;;;4840237;29;45664;-83
2023/08/21 03:35:01;;;;;;;4.25;3.85;;;26.20;62.20;;;;;;4841900;29;46420;-83
2023/08/21 03:37:26;;;;;;;3.95;3.65;;;26.20;62.20;;;;;;4878430;29;45667;-84
2023/08/21 03:39:52;;;;;;;4.05;3.67;;;26.20;62.20;;;;;;4877890;29;48023;-83
2023/08/21 03:42:17;;;;;;;4.00;3.60;;;26.20;63.00;;;;;;4861749;29;45410;-83
2023/08/21 03:44:43;;;;;;;4.32;3.92;;;26.20;62.20;;;;;;4875555;29;45647;-84
2023/08/21 03:47:09;;;;;;;4.10;3.70;;;26.20;62.20;;;;;;4855940;29;45965;-83
2023/08/21 03:49:35;;;;;;;4.25;3.85;;;26.20;62.20;;;;;;4860125;29;46135;-84
2023/08/21 03:52:01;;;;;;;4.13;3.80;;;26.20;62.20;;;;;;4857606;29;45531;-83
2023/08/21 03:54:26;;;;;;;4.72;4.32;;;26.20;62.20;;;;;;4854058;29;45157;-84
2023/08/21 03:56:52;;;;;;;4.38;3.97;;;26.20;62.20;;;;;;4857999;29;45030;-84
2023/08/21 03:59:17;;;;;;;4.18;3.78;;;26.20;62.20;;;;;;4846018;29;47285;-84
2023/08/21 04:01:43;;;;;;;4.18;3.78;;;26.20;62.80;;;;;;4866089;29;45139;-85
2023/08/21 04:04:09;;;;;;;4.65;4.25;;;26.20;62.20;;;;;;4862879;29;45266;-82
2023/08/21 04:06:34;;;;;;;4.93;4.43;;;26.20;62.20;;;;;;4862945;29;45211;-83
2023/08/21 04:09:00;;;;;;;4.90;3.95;;;26.20;62.20;;;;;;4848952;29;47488;-82
2023/08/21 04:11:25;;;;;;;5.53;4.32;;;26.20;62.20;;;;;;4873623;29;45286;-83
2023/08/21 04:13:51;;;;;;;5.13;4.47;;;26.20;62.20;;;;;;4856517;29;45549;-82
2023/08/21 04:16:17;;;;;;;4.15;3.75;;;26.20;62.20;;;;;;4854140;29;45574;-85
2023/08/21 04:18:43;;;;;;;5.30;4.80;;;26.20;62.20;;;;;;4860583;29;46834;-85
2023/08/21 04:21:09;;;;;;;4.10;3.75;;;26.20;62.20;;;;;;4889535;28;45184;-82
2023/08/21 04:23:35;;;;;;;4.53;4.13;;;26.20;62.20;;;;;;4866423;29;45486;-82
2023/08/21 04:26:02;;;;;;;4.80;4.30;;;26.20;62.20;;;;;;4871337;29;45299;-83
2023/08/21 04:28:29;;;;;;;5.00;4.50;;;26.20;62.20;;;;;;4861538;29;46357;-82
2023/08/21 04:30:54;;;;;;;4.53;4.13;;;26.20;62.20;;;;;;4866185;29;45042;-84
2023/08/21 04:33:20;;;;;;;5.70;4.03;;;26.20;62.20;;;;;;4877228;29;45231;-82
2023/08/21 04:35:45;;;;;;;4.45;4.05;;;26.20;62.20;;;;;;4855843;29;45603;-82
2023/08/21 04:38:11;;;;;;;4.65;4.25;;;26.20;62.20;;;;;;4875289;28;45244;-81
2023/08/21 04:40:37;;;;;;;4.63;4.22;;;26.20;62.20;;;;;;4854510;29;45283;-83
2023/08/21 04:43:03;;;;;;;4.43;4.03;;;26.20;62.20;;;;;;4851141;29;45004;-82
2023/08/21 04:45:28;;;;;;;4.90;4.05;;;26.20;62.20;;;;;;4852439;29;45110;-83
2023/08/21 04:47:54;;;;;;;4.43;4.03;;;26.20;62.20;;;;;;4875104;29;47372;-83
2023/08/21 04:50:19;;;;;;;4.32;3.92;;;26.20;62.20;;;;;;4859095;28;45484;-83
2023/08/21 04:52:45;;;;;;;4.53;4.13;;;26.20;62.20;;;;;;4847198;29;45474;-83
2023/08/21 04:55:10;;;;;;;4.75;4.30;;;26.20;62.20;;;;;;4848072;29;45645;-82
2023/08/21 04:57:36;;;;;;;4.93;4.53;;;26.20;62.20;;;;;;4890026;28;46997;-82
2023/08/21 05:00:03;;;;;;;4.70;4.30;;;26.10;62.10;;;;;;4872132;29;46078;-82
2023/08/21 05:02:29;;;;;;;4.85;4.43;;;26.20;62.20;;;;;;4829582;29;45416;-82
2023/08/21 05:04:55;;;;;;;4.63;4.22;;;26.20;62.20;;;;;;4849687;29;45083;-83
2023/08/21 05:07:21;;;;;;;4.40;4.00;;;26.20;62.20;;;;;;4838606;29;46436;-88
2023/08/21 05:09:46;;;;;;;5.07;4.57;;;26.20;62.20;;;;;;4843197;29;45320;-83
2023/08/21 05:12:12;;;;;;;4.90;4.50;;;26.20;62.20;;;;;;4849399;29;44945;-82
2023/08/21 05:14:37;;;;;;;5.28;4.78;;;26.20;62.20;;;;;;4830620;29;46059;-81
2023/08/21 05:17:03;;;;;;;4.55;4.15;;;26.20;62.20;;;;;;4849977;29;47477;-81
2023/08/21 05:19:29;;;;;;;4.78;4.38;;;26.20;62.20;;;;;;4835298;29;45100;-81
2023/08/21 05:21:54;;;;;;;5.13;4.63;;;26.20;62.20;;;;;;4830385;29;45437;-85
2023/08/21 05:24:20;;;;;;;6.47;4.97;;;26.20;62.20;;;;;;4810937;29;45112;-82
2023/08/21 05:26:45;;;;;;;5.55;5.05;;;26.20;62.20;;;;;;4823524;29;47146;-83
2023/08/21 05:29:11;;;;;;;4.97;4.47;;;26.10;62.10;;;;;;4828798;29;45301;-85
2023/08/21 05:31:36;;;;;;;5.90;4.85;;;26.10;62.20;;;;;;4836456;29;45123;-83
2023/08/21 05:34:02;;;;;;;7.60;5.22;;;26.20;62.20;;;;;;4829790;29;44983;-85
2023/08/21 05:36:28;;;;;;;5.60;5.10;;;26.20;62.20;;;;;;4831176;29;45769;-84
2023/08/21 05:38:53;;;;;;;5.55;4.90;;;26.20;62.20;;;;;;4827755;29;45177;-84
2023/08/21 05:41:19;;;;;;;5.63;5.00;;;26.10;62.20;;;;;;4835715;29;45486;-84
2023/08/21 05:43:45;;;;;;;5.88;5.22;;;26.20;62.20;;;;;;4829760;29;45140;-83
2023/08/21 05:46:11;;;;;;;5.43;4.90;;;26.20;62.20;;;;;;4811036;29;47286;-83
2023/08/21 05:48:36;;;;;;;5.28;4.72;;;26.20;62.20;;;;;;4819890;29;45180;-83
2023/08/21 05:51:02;;;;;;;5.60;5.10;;;26.20;62.20;;;;;;4820109;29;45311;-82
2023/08/21 05:53:28;;;;;;;5.53;4.93;;;26.20;62.30;;;;;;4835949;29;45764;-82
2023/08/21 05:55:54;;;;;;;5.40;4.82;;;26.20;62.20;;;;;;4821821;29;45963;-81
2023/08/21 05:58:19;;;;;;;5.22;4.72;;;26.20;62.20;;;;;;4847354;29;45661;-85
2023/08/21 06:00:46;;;;;;;4.75;4.35;;;26.20;62.20;;;;;;4852474;29;45366;-82
2023/08/21 06:03:12;;;;;;;5.35;4.85;;;26.20;62.20;;;;;;4847025;29;45784;-83
2023/08/21 06:05:40;;;;;;;6.18;4.88;;;26.20;62.30;;;;;;4848122;29;45253;-84
2023/08/21 06:08:08;;;;;;;4.90;4.50;;;26.20;62.30;;;;;;4847978;29;46193;-83
2023/08/21 06:10:34;;;;;;;6.18;5.32;;;26.20;62.20;;;;;;4848632;29;45495;-82
2023/08/21 06:12:59;;;;;;;5.20;4.72;;;26.20;62.20;;;;;;4866789;29;45266;-82
2023/08/21 06:15:25;;;;;;;5.53;4.78;;;26.20;62.20;;;;;;4875258;29;45355;-83
2023/08/21 06:17:50;;;;;;;5.43;4.93;;;26.20;62.30;;;;;;4886905;29;45212;-82
2023/08/21 06:20:16;;;;;;;5.43;4.93;;;26.20;62.20;;;;;;4863861;29;45329;-82
2023/08/21 06:22:42;;;;;;;5.50;5.00;;;26.20;62.30;;;;;;4865363;29;45378;-82
2023/08/21 06:25:12;;;;;;;6.80;5.50;;;26.20;62.30;;;;;;4852085;29;47182;-85
2023/08/21 06:27:41;;;;;;;5.55;4.95;;;26.20;62.30;;;;;;4863233;29;45506;-82
2023/08/21 06:30:07;;;;;;;5.47;4.97;;;26.20;62.30;;;;;;4860118;28;45611;-86
2023/08/21 06:32:33;;;;;;;5.28;4.75;;;26.20;62.30;;;;;;4869082;29;45747;-82
2023/08/21 06:34:59;;;;;;;6.03;5.43;;;26.10;62.20;;;;;;4864223;29;47228;-82
2023/08/21 06:37:25;;;;;;;5.63;5.13;;;26.20;62.30;;;;;;4861477;29;45445;-82
2023/08/21 06:39:50;;;;;;;5.57;5.07;;;26.20;62.30;;;;;;4882739;29;45266;-83
2023/08/21 06:42:16;;;;;;;5.63;5.13;;;26.20;62.30;;;;;;4854684;29;45309;-85
2023/08/21 06:44:42;;;;;;;5.22;4.78;;;26.10;62.30;;;;;;4894057;28;47061;-82
2023/08/21 06:47:07;;;;;;;5.75;5.25;;;26.20;62.30;;;;;;4833892;29;45557;-85
2023/08/21 06:49:33;;;;;;;5.95;5.40;;;26.10;62.20;;;;;;4880272;29;45538;-82
2023/08/21 06:51:59;;;;;;;5.75;5.20;;;26.10;62.20;;;;;;4860082;29;46039;-83
2023/08/21 06:54:24;;;;;;;5.75;5.22;;;26.20;62.30;;;;;;4862490;29;45396;-84
2023/08/21 06:56:50;;;;;;;6.18;4.88;;;26.20;62.30;;;;;;4848633;29;46133;-82
2023/08/21 06:59:15;;;;;;;6.13;5.50;;;26.20;62.30;;;;;;4864253;29;45349;-84
2023/08/21 07:01:41;;;;;;;5.70;5.10;;;26.20;62.30;;;;;;4856741;28;45526;-83
2023/08/21 07:04:06;;;;;;;5.75;5.25;;;26.20;62.40;;;;;;4862380;29;45508;-82
2023/08/21 07:06:32;;;;;;;6.35;5.75;;;26.20;62.30;;;;;;4877392;29;45288;-82
2023/08/21 07:08:58;;;;;;;5.55;5.05;;;26.20;62.30;;;;;;4861304;29;45118;-82
2023/08/21 07:11:23;;;;;;;6.00;5.40;;;26.10;62.20;;;;;;4871035;29;45442;-83
2023/08/21 07:13:49;;;;;;;7.28;5.13;;;26.20;62.30;;;;;;4871785;29;45522;-82
2023/08/21 07:16:15;;;;;;;5.85;5.32;;;26.10;62.20;;;;;;4867167;29;44969;-83
2023/08/21 07:18:40;;;;;;;5.35;4.85;;;26.20;62.40;;;;;;4863057;29;45796;-81
2023/08/21 07:21:06;;;;;;;6.40;5.35;;;26.10;62.20;;;;;;4839985;29;45406;-83
2023/08/21 07:23:32;;;;;;;6.05;5.55;;;26.20;62.30;;;;;;4857383;29;46150;-82
2023/08/21 07:25:58;;;;;;;6.25;5.70;;;26.10;62.20;;;;;;4846889;29;45204;-83
2023/08/21 07:28:24;;;;;;;6.43;5.70;;;26.20;62.30;;;;;;4863947;29;45084;-82
2023/08/21 07:31:10;;;;;;;6.13;5.53;;;26.10;62.20;;;;;;4844631;29;44802;-83
2023/08/21 07:33:35;;;;;;;6.85;5.28;;;26.20;62.30;;;;;;4875118;29;47108;-82
2023/08/21 07:36:02;;;;;;;5.72;5.22;;;26.10;62.20;;;;;;4844018;29;45459;-82
2023/08/21 07:38:27;;;;;;;5.53;4.97;;;26.20;62.30;;;;;;4874243;29;45050;-84
2023/08/21 07:41:04;;;;;;;4.97;4.57;;;26.20;62.30;;;;;;4859475;29;45473;-82
2023/08/21 07:43:30;;;;;;;5.22;4.72;;;26.20;62.30;;;;;;4861397;29;45239;-83
2023/08/21 07:45:55;;;;;;;5.82;5.22;;;26.20;62.30;;;;;;4870554;29;45197;-81
2023/08/21 07:48:21;;;;;;;5.95;5.35;;;26.20;62.30;;;;;;4848311;29;45471;-82
2023/08/21 07:50:52;;;;;;;6.07;5.43;;;26.20;62.30;;;;;;4834186;29;46046;-84
2023/08/21 07:53:17;;;;;;;6.13;5.38;;;26.20;62.30;;;;;;4848232;29;45928;-82
2023/08/21 07:55:43;;;;;;;6.20;5.60;;;26.20;62.40;;;;;;4838618;29;45028;-84
2023/08/21 07:58:09;;;;;;;5.93;5.43;;;26.20;62.40;;;;;;4847290;29;45437;-82
2023/08/21 08:00:35;;;;;;;5.72;5.18;;;26.20;62.30;;;;;;4869871;29;45221;-82
2023/08/21 08:03:01;;;;;;;6.03;5.43;;;26.20;62.30;;;;;;4846913;29;46475;-83
2023/08/21 08:05:26;;;;;;;6.07;5.47;;;26.20;62.30;;;;;;4853197;29;45186;-82
2023/08/21 08:07:52;;;;;;;7.25;5.18;;;26.10;63.00;;;;;;4863545;29;44998;-85
2023/08/21 08:10:20;;;;;;;5.72;5.22;;;26.20;62.30;;;;;;4874811;29;45553;-84
2023/08/21 08:12:45;;;;;;;5.55;5.05;;;26.20;62.30;;;;;;4864719;29;45381;-85
2023/08/21 08:15:11;;;;;;;6.32;5.72;;;26.20;62.40;;;;;;4844983;29;45491;-84
2023/08/21 08:17:36;;;;;;;6.03;5.43;;;26.20;62.30;;;;;;4874342;29;45306;-82
2023/08/21 08:20:09;;;;;;;6.68;5.88;;;26.20;62.40;;;;;;4872701;29;45262;-82
2023/08/21 08:22:36;;;;;;;5.90;5.35;;;26.20;62.30;;;;;;4875170;29;45945;-83
2023/08/21 08:25:01;;;;;;;5.70;5.20;;;26.20;62.30;;;;;;4830271;29;45126;-84
2023/08/21 08:27:27;;;;;;;5.85;5.35;;;26.20;62.40;;;;;;4845660;29;45261;-83
2023/08/21 08:29:52;;;;;;;5.85;5.25;;;26.20;62.30;;;;;;4862603;29;45563;-82
2023/08/21 08:32:18;;;;;;;6.93;6.25;;;26.20;62.30;;;;;;4843360;29;45956;-83
2023/08/21 08:34:46;;;;;;;6.30;5.70;;;26.20;62.40;;;;;;4831420;29;45478;-84
2023/08/21 08:37:12;;;;;;;6.07;5.47;;;26.20;62.30;;;;;;4875383;29;45364;-82
2023/08/21 08:39:37;;;;;;;5.93;5.43;;;26.20;62.30;;;;;;4873113;29;45135;-82
2023/08/21 08:42:03;;;;;;;5.88;5.35;;;26.20;62.30;;;;;;4857737;29;46830;-82
2023/08/21 08:44:29;;;;;;;5.90;5.40;;;26.20;62.30;;;;;;4844563;29;44963;-81
2023/08/21 08:46:55;;;;;;;5.80;5.30;;;26.20;62.30;;;;;;4855253;29;45576;-85
2023/08/21 08:49:22;;;;;;;6.32;5.72;;;26.20;62.30;;;;;;4871306;29;45327;-82
2023/08/21 08:51:48;;;;;;;6.10;5.50;;;26.20;62.30;;;;;;4836901;29;46938;-84
2023/08/21 08:54:15;;;;;;;6.18;5.65;;;26.20;62.30;;;;;;4856361;29;45438;-83
2023/08/21 08:56:40;;;;;;;5.90;5.40;;;26.20;62.30;;;;;;4824137;29;44953;-81
2023/08/21 08:59:07;;;;;;;5.80;5.30;;;26.20;62.30;;;;;;4862932;29;45653;-82
2023/08/21 09:01:33;;;;;;;7.22;5.68;;;26.20;62.30;;;;;;4853355;29;46282;-81
2023/08/21 09:03:58;;;;;;;6.25;5.63;;;26.20;62.30;;;;;;4888332;29;45578;-82
2023/08/21 09:06:24;;;;;;;5.90;5.30;;;26.20;62.30;;;;;;4860077;29;45069;-83
2023/08/21 09:08:54;;;;;;;5.70;5.20;;;26.20;62.30;;;;;;4869914;29;45770;-83
2023/08/21 09:11:20;;;;;;;5.85;5.32;;;26.20;62.30;;;;;;4837246;29;46680;-82
2023/08/21 09:13:45;;;;;;;6.53;5.93;;;26.20;62.30;;;;;;4846737;29;45394;-82
2023/08/21 09:16:11;;;;;;;6.18;5.57;;;26.20;62.30;;;;;;4859627;29;45528;-82
2023/08/21 09:18:37;;;;;;;6.03;5.47;;;26.20;62.30;;;;;;4841480;29;45236;-84
2023/08/21 09:21:03;;;;;;;5.95;5.38;;;26.20;62.30;;;;;;4863021;29;47191;-83
2023/08/21 09:23:29;;;;;;;6.93;5.88;;;26.20;62.30;;;;;;4862794;29;45285;-82
2023/08/21 09:25:54;;;;;;;5.88;5.38;;;26.20;62.30;;;;;;4868073;29;45289;-81
2023/08/21 09:28:23;;;;;;;6.45;5.85;;;26.20;62.30;;;;;;4831301;29;45420;-83
2023/08/21 09:30:53;;;;;;;5.95;5.35;;;26.20;62.30;;;;;;4839668;29;47377;-85
2023/08/21 09:33:23;;;;;;;5.90;5.40;;;26.20;62.30;;;;;;4865467;29;45770;-83
2023/08/21 09:35:50;;;;;;;6.50;5.65;;;26.20;62.30;;;;;;4839524;29;45732;-84
2023/08/21 09:38:16;;;;;;;7.03;6.18;;;26.20;62.30;;;;;;4861283;29;45251;-83
2023/08/21 09:40:42;;;;;;;5.70;5.20;;;26.20;62.40;;;;;;4858776;29;47906;-83
2023/08/21 09:43:09;;;;;;;6.97;6.38;;;26.20;62.40;;;;;;4874464;29;45415;-82
2023/08/21 09:45:35;;;;;;;7.07;6.38;;;26.20;62.50;;;;;;4860861;29;45617;-86
2023/08/21 09:48:00;;;;;;;5.97;5.38;;;26.30;62.60;;;;;;4877931;28;45287;-82
2023/08/21 09:50:26;;;;;;;6.97;6.38;;;26.30;62.70;;;;;;4849049;29;47257;-85
2023/08/21 09:52:52;;;;;;;7.00;6.30;;;26.20;62.70;;;;;;4875472;29;45378;-82
2023/08/21 09:55:17;;;;;;;6.88;6.07;;;26.30;63.50;;;;;;4889467;29;45492;-83
2023/08/21 09:57:43;;;;;;;6.55;5.95;;;26.30;62.80;;;;;;4876548;29;45994;-83
2023/08/21 10:00:20;;;;;;;6.45;5.85;;;26.30;63.60;;;;;;4856327;29;46749;-85
2023/08/21 10:02:51;;;;;;;5.82;5.32;;;26.20;62.70;;;;;;4858846;29;45027;-83
2023/08/21 10:05:17;;;;;;;8.10;6.43;;;26.30;62.80;;;;;;4848008;29;45077;-84
2023/08/21 10:07:45;;;;;;;6.70;6.07;;;26.30;62.90;;;;;;4871933;29;44991;-84
2023/08/21 10:10:11;;;;;;;6.70;5.55;;;26.30;62.90;;;;;;4856226;29;47879;-84
2023/08/21 10:12:37;;;;;;;6.47;5.88;;;26.30;62.80;;;;;;4861778;29;45052;-83
2023/08/21 10:15:11;;;;;;;7.28;5.63;;;26.30;62.80;;;;;;4858440;29;45313;-87
2023/08/21 10:17:37;;;;;;;6.15;5.55;;;26.30;62.80;;;;;;4828338;29;45478;-82
2023/08/21 10:20:07;;;;;;;5.43;4.93;;;26.30;62.90;;;;;;4872760;29;47107;-87
2023/08/21 10:23:01;;;;;;;7.25;5.72;;;26.30;63.00;;;;;;4860871;29;45572;-83
2023/08/21 10:25:30;;;;;;;6.28;5.75;;;26.30;63.00;;;;;;4855429;29;45621;-87
2023/08/21 10:27:56;;;;;;;6.35;5.75;;;26.30;63.00;;;;;;4863874;29;45818;-84
2023/08/21 10:30:23;;;;;;;6.05;5.47;;;26.30;62.90;;;;;;4846907;29;45293;-83
2023/08/21 10:32:50;;;;;;;6.53;5.55;;;26.30;62.80;;;;;;4876087;29;45483;-84
2023/08/21 10:35:20;;;;;;;6.10;5.57;;;26.30;62.80;;;;;;4852206;29;45033;-84
2023/08/21 10:38:18;;;;;;;6.18;5.60;;;26.30;62.80;;;;;;4875385;29;45480;-85
2023/08/21 10:41:03;;;;;;;5.70;5.20;;;26.40;62.70;;;;;;4848348;29;45405;-83
2023/08/21 10:43:43;;;;;;;6.35;5.75;;;26.30;62.50;;;;;;4880741;29;45269;-83
2023/08/21 10:46:09;;;;;;;6.50;5.90;;;26.40;62.60;;;;;;4863616;29;45963;-85
2023/08/21 10:48:35;;;;;;;5.85;5.35;;;26.30;62.50;;;;;;4855582;29;45580;-84
2023/08/21 10:51:05;;;;;;;5.68;5.18;;;26.40;62.60;;;;;;4855575;29;47850;-83
2023/08/21 10:53:31;;;;;;;5.50;5.00;;;26.40;62.60;;;;;;4864657;29;45319;-83
2023/08/21 10:55:57;;;;;;;5.88;5.38;;;26.40;62.60;;;;;;4846819;29;45573;-86
2023/08/21 10:58:23;;;;;;;5.97;5.32;;;26.30;62.50;;;;;;4850744;29;44837;-85
2023/08/21 11:01:00;;;;;;;5.65;5.15;;;26.40;62.50;;;;;;4875574;29;46345;-83
2023/08/21 11:03:26;;;;;;;5.85;5.28;;;26.30;62.50;;;;;;4869547;29;45108;-83
2023/08/21 11:06:05;;;;;;;5.53;5.03;;;26.40;62.50;;;;;;4864325;29;45333;-81
2023/08/21 11:08:34;;;;;;;5.65;5.15;;;26.40;63.30;;;;;;4867752;29;45420;-85
2023/08/21 11:11:01;;;;;;;5.35;4.85;;;26.40;62.50;;;;;;4828690;29;47379;-85
2023/08/21 11:13:27;;;;;;;6.82;5.60;;;26.40;62.50;;;;;;4846952;29;46271;-83
2023/08/21 11:16:02;;;;;;;5.57;5.07;;;26.40;62.50;;;;;;4855510;29;45675;-82
2023/08/21 11:18:40;;;;;;;5.65;5.15;;;26.40;62.50;;;;;;4846061;29;44929;-83
2023/08/21 11:21:10;;;;;;;6.30;5.65;;;26.40;62.50;;;;;;4845319;29;47100;-84
2023/08/21 11:23:37;;;;;;;5.60;5.10;;;26.40;62.60;;;;;;4850447;29;44969;-83
2023/08/21 11:26:03;;;;;;;5.60;5.13;;;26.40;62.50;;;;;;4833994;29;45378;-83
2023/08/21 11:28:29;;;;;;;5.32;4.82;;;26.40;62.50;;;;;;4850038;29;45594;-82
2023/08/21 11:31:01;;;;;;;5.95;5.45;;;26.40;62.50;;;;;;4867481;29;46405;-84
2023/08/21 11:33:27;;;;;;;5.55;5.05;;;26.40;62.50;;;;;;4861447;29;45134;-83
2023/08/21 11:35:53;;;;;;;5.40;4.90;;;26.40;62.50;;;;;;4883436;29;45569;-83
2023/08/21 11:38:23;;;;;;;5.55;5.05;;;26.40;62.50;;;;;;4868719;29;45906;-84
2023/08/21 11:40:53;;;;;;;5.72;5.22;;;26.40;62.50;;;;;;4849555;29;47197;-83
2023/08/21 11:43:19;;;;;;;5.60;5.00;;;26.40;62.50;;;;;;4836015;28;45099;-81
2023/08/21 11:45:46;;;;;;;5.78;5.28;;;26.40;62.50;;;;;;4856851;29;45470;-85
2023/08/21 11:48:11;;;;;;;5.55;5.05;;;26.40;62.50;;;;;;4860852;29;45428;-83
2023/08/21 11:50:37;;;;;;;5.28;4.72;;;26.40;62.50;;;;;;4841433;29;47487;-83
2023/08/21 11:53:03;;;;;;;5.78;5.28;;;26.40;62.60;;;;;;4846876;28;45364;-83
2023/08/21 11:55:29;;;;;;;5.85;5.15;;;26.40;62.60;;;;;;4859191;29;45231;-81
2023/08/21 11:57:54;;;;;;;5.70;5.20;;;26.40;62.60;;;;;;4855717;29;45566;-83
2023/08/21 12:00:27;;;;;;;5.72;5.13;;;26.40;62.60;;;;;;4867263;29;46142;-83
2023/08/21 12:02:56;;;;;;;5.43;4.93;;;26.40;62.70;;;;;;4849974;29;45330;-82
2023/08/21 12:05:22;;;;;;;5.40;4.93;;;26.40;62.60;;;;;;4860611;29;45116;-84
2023/08/21 12:07:48;;;;;;;5.13;4.63;;;26.40;62.70;;;;;;4846861;29;45009;-85
2023/08/21 12:10:13;;;;;;;5.20;4.80;;;26.40;62.70;;;;;;4859400;29;45633;-86
2023/08/21 12:12:39;;;;;;;5.60;5.10;;;26.50;62.70;;;;;;4860851;29;45285;-83
2023/08/21 12:15:17;;;;;;;5.32;4.85;;;26.40;62.60;;;;;;4861183;29;45495;-86
2023/08/21 12:17:43;;;;;;;5.70;5.20;;;26.40;62.60;;;;;;4867939;29;44762;-82
2023/08/21 12:20:11;;;;;;;7.68;5.60;;;26.40;62.70;;;;;;4856972;29;45704;-85
2023/08/21 12:22:40;;;;;;;6.05;5.45;;;26.50;62.80;;;;;;4862710;29;45768;-83
2023/08/21 12:25:13;;;;;;;5.15;4.65;;;26.40;62.70;;;;;;4848148;29;45210;-87
2023/08/21 12:27:39;;;;;;;5.60;4.50;;;26.40;62.70;;;;;;4858559;29;45769;-82
2023/08/21 12:30:13;;;;;;;5.88;4.82;;;26.40;62.60;;;;;;4859712;29;45562;-86
2023/08/21 12:32:40;;;;;;;5.00;4.60;;;26.40;62.60;;;;;;4847895;29;45777;-84
2023/08/21 12:35:11;;;;;;;6.60;5.30;;;26.40;62.60;;;;;;4852520;29;45045;-85
2023/08/21 12:37:37;;;;;;;5.40;4.82;;;26.50;62.60;;;;;;4834642;29;44740;-85
2023/08/21 12:40:04;;;;;;;5.07;4.65;;;26.50;62.70;;;;;;4861031;29;47095;-87
2023/08/21 12:42:30;;;;;;;6.25;5.28;;;26.40;62.60;;;;;;4834450;29;45184;-83
2023/08/21 12:44:55;;;;;;;4.93;4.43;;;26.40;62.70;;;;;;4833235;29;46330;-83
2023/08/21 12:47:21;;;;;;;5.03;4.53;;;26.40;62.70;;;;;;4874114;29;46705;-85
2023/08/21 12:49:47;;;;;;;4.93;4.53;;;26.50;62.80;;;;;;4866005;29;47232;-82
2023/08/21 12:52:12;;;;;;;4.97;4.57;;;26.40;62.70;;;;;;4860876;29;45256;-81
2023/08/21 12:54:39;;;;;;;5.15;4.75;;;26.50;62.80;;;;;;4840501;29;45467;-85
2023/08/21 12:57:05;;;;;;;5.35;4.85;;;26.50;62.80;;;;;;4856309;29;45546;-83
2023/08/21 12:59:30;;;;;;;5.07;4.68;;;26.50;62.80;;;;;;4865825;29;46900;-83
2023/08/21 13:01:58;;;;;;;5.60;5.10;;;26.40;62.70;;;;;;4867758;29;45284;-85
2023/08/21 13:04:23;;;;;;;4.80;4.35;;;26.40;62.80;;;;;;4879237;29;45236;-81
2023/08/21 13:06:49;;;;;;;5.15;4.55;;;26.50;62.80;;;;;;4858278;29;44913;-83
2023/08/21 13:09:14;;;;;;;5.18;4.63;;;26.40;62.70;;;;;;4862748;29;46655;-86
2023/08/21 13:11:40;;;;;;;5.10;4.70;;;26.40;62.70;;;;;;4872681;29;45174;-83
2023/08/21 13:14:06;;;;;;;4.65;4.25;;;26.50;62.80;;;;;;4864796;29;45682;-82
2023/08/21 13:16:31;;;;;;;4.80;4.40;;;26.50;62.80;;;;;;4847167;29;46123;-84
2023/08/21 13:18:57;;;;;;;4.85;4.40;;;26.50;62.80;;;;;;4877816;29;46878;-87
2023/08/21 13:21:22;;;;;;;5.05;4.60;;;26.50;62.70;;;;;;4865020;29;45497;-82
2023/08/21 13:23:48;;;;;;;4.43;4.03;;;26.50;62.80;;;;;;4880472;29;45425;-81
2023/08/21 13:26:13;;;;;;;5.18;4.68;;;26.50;62.80;;;;;;4869891;29;45689;-83
2023/08/21 13:28:39;;;;;;;4.95;4.55;;;26.50;62.80;;;;;;4875398;29;47081;-82
2023/08/21 13:31:06;;;;;;;5.07;4.57;;;26.50;62.80;;;;;;4839571;29;45099;-86
2023/08/21 13:33:33;;;;;;;4.50;4.10;;;26.50;62.70;;;;;;4866632;29;45300;-84
2023/08/21 13:35:58;;;;;;;4.93;4.30;;;26.50;62.70;;;;;;4883039;29;46100;-83
2023/08/21 13:38:24;;;;;;;5.07;4.50;;;26.50;62.70;;;;;;4874596;29;45818;-81
2023/08/21 13:40:49;;;;;;;4.63;4.22;;;26.50;62.70;;;;;;4857982;29;45334;-82
2023/08/21 13:43:15;;;;;;;5.35;4.85;;;26.50;62.70;;;;;;4859722;29;44975;-86
2023/08/21 13:45:40;;;;;;;4.47;4.07;;;26.50;62.70;;;;;;4872788;29;45234;-85
2023/08/21 13:48:06;;;;;;;4.97;4.47;;;26.50;62.70;;;;;;4848556;29;47723;-83
2023/08/21 13:50:32;;;;;;;5.35;4.45;;;26.50;62.70;;;;;;4849396;29;45304;-81
2023/08/21 13:52:58;;;;;;;5.63;4.25;;;26.50;62.70;;;;;;4850646;29;45321;-82
2023/08/21 13:55:23;;;;;;;4.97;4.57;;;26.50;62.60;;;;;;4842241;29;45354;-82
2023/08/21 13:57:49;;;;;;;4.68;4.25;;;26.50;62.70;;;;;;4858046;29;46018;-82
2023/08/21 14:00:17;;;;;;;5.20;4.70;;;26.40;62.60;;;;;;4881674;29;46053;-86
2023/08/21 14:02:43;;;;;;;4.80;4.40;;;26.50;62.70;;;;;;4874125;29;45300;-83
2023/08/21 14:05:11;;;;;;;4.75;4.05;;;26.40;62.60;;;;;;4890988;29;44769;-84
2023/08/21 14:07:36;;;;;;;4.22;3.83;;;26.50;62.70;;;;;;4870614;29;46120;-82
2023/08/21 14:10:06;;;;;;;4.57;4.13;;;26.50;62.70;;;;;;4887913;29;45158;-87
2023/08/21 14:12:32;;;;;;;4.60;4.07;;;26.50;62.70;;;;;;4858953;29;45576;-83
2023/08/21 14:15:00;;;;;;;5.10;4.22;;;26.50;62.70;;;;;;4866830;29;45346;-86
2023/08/21 14:17:26;;;;;;;5.15;4.65;;;26.50;62.70;;;;;;4862829;29;47504;-83
2023/08/21 14:19:53;;;;;;;4.70;4.30;;;26.50;62.70;;;;;;4868905;29;45947;-83
2023/08/21 14:22:21;;;;;;;4.70;4.30;;;26.50;62.70;;;;;;4854485;29;45114;-84
2023/08/21 14:24:47;;;;;;;4.65;4.15;;;26.50;62.70;;;;;;4887714;29;44887;-83
2023/08/21 14:27:12;;;;;;;4.95;4.47;;;26.50;62.70;;;;;;4859460;29;46139;-83
2023/08/21 14:29:38;;;;;;;5.28;4.10;;;26.50;62.80;;;;;;4847886;29;45236;-83
2023/08/21 14:32:04;;;;;;;4.65;4.25;;;26.50;62.80;;;;;;4858948;29;45338;-82
2023/08/21 14:34:30;;;;;;;5.18;4.07;;;26.50;62.70;;;;;;4866187;29;45438;-82
2023/08/21 14:36:56;;;;;;;4.45;4.05;;;26.50;62.70;;;;;;4848688;29;47363;-81
2023/08/21 14:39:22;;;;;;;5.45;4.30;;;26.50;62.70;;;;;;4862500;29;44739;-83
2023/08/21 14:41:54;;;;;;;5.15;4.07;;;26.50;62.70;;;;;;4832381;29;44987;-82
2023/08/21 14:44:20;;;;;;;4.68;3.90;;;26.50;62.70;;;;;;4856452;29;45609;-82
2023/08/21 14:46:45;;;;;;;4.30;3.80;;;26.50;62.70;;;;;;4846811;29;47331;-82
2023/08/21 14:49:13;;;;;;;5.07;4.57;;;26.50;62.70;;;;;;4850250;29;45259;-84
2023/08/21 14:51:39;;;;;;;5.28;4.43;;;26.50;62.70;;;;;;4860783;29;45326;-81
2023/08/21 14:54:04;;;;;;;5.20;4.55;;;26.50;62.70;;;;;;4883171;29;45755;-82
2023/08/21 14:56:30;;;;;;;5.00;4.47;;;26.50;62.70;;;;;;4859736;29;46091;-82
2023/08/21 14:58:56;;;;;;;4.88;3.92;;;26.50;62.70;;;;;;4890560;29;45305;-83
2023/08/21 15:01:21;;;;;;;4.72;4.32;;;26.50;62.70;;;;;;4858981;29;45533;-82
2023/08/21 15:03:47;;;;;;;4.50;4.10;;;26.50;62.80;;;;;;4846453;29;45278;-86
2023/08/21 15:06:13;;;;;;;5.32;4.10;;;26.50;62.70;;;;;;4854907;29;45848;-84
2023/08/21 15:08:39;;;;;;;4.43;4.03;;;26.50;62.70;;;;;;4864333;29;45324;-83
2023/08/21 15:11:05;;;;;;;4.15;3.85;;;26.50;63.40;;;;;;4858125;29;45519;-85
2023/08/21 15:13:31;;;;;;;4.63;4.22;;;26.50;62.60;;;;;;4846786;29;45366;-84
2023/08/21 15:15:56;;;;;;;5.22;4.10;;;26.50;62.60;;;;;;4857405;29;45911;-85
2023/08/21 15:18:22;;;;;;;4.32;3.92;;;26.50;62.60;;;;;;4878319;29;45689;-83
2023/08/21 15:20:48;;;;;;;5.00;4.22;;;26.50;62.60;;;;;;4850617;29;45093;-85
2023/08/21 15:23:13;;;;;;;5.00;4.25;;;26.50;62.60;;;;;;4879415;29;45598;-86
2023/08/21 15:25:39;;;;;;;4.85;3.80;;;26.50;62.60;;;;;;4862455;29;45514;-84
2023/08/21 15:28:06;;;;;;;4.13;3.70;;;26.50;62.60;;;;;;4866048;29;44886;-84
2023/08/21 15:30:32;;;;;;;4.47;4.07;;;26.50;62.60;;;;;;4865493;29;45207;-85
2023/08/21 15:32:57;;;;;;;4.63;4.22;;;26.50;62.60;;;;;;4851340;29;45276;-86
2023/08/21 15:35:23;;;;;;;4.47;4.07;;;26.50;62.60;;;;;;4878213;29;46756;-85
2023/08/21 15:37:49;;;;;;;4.40;3.88;;;26.50;62.60;;;;;;4862952;29;45230;-83
2023/08/21 15:40:15;;;;;;;4.47;4.07;;;26.50;62.60;;;;;;4861142;28;45298;-84
2023/08/21 15:42:40;;;;;;;4.15;3.72;;;26.50;62.60;;;;;;4876979;29;44736;-83
2023/08/21 15:45:10;;;;;;;4.20;3.80;;;26.50;62.60;;;;;;4861561;29;46269;-88